Time;durP1;ratioP1;P1;durP2;ratioP2;P2;SDS_P1;SDS_P2;PMS_P1;PMS_P2;Temp;Humidity;BMP_temperature;BMP_pressure;BME280_temperature;BME280_humidity;BME280_pressure;Samples;Min_cycle;Max_cycle;Signal;HPM_P1;HPM_P2
2022/10/30 00:00:08;;;;;;;11.48;6.18;;;;;;;15.64;78.87;99898.94;344792;28;1179;-80
2022/10/30 00:00:20;;;;;;;13.13;6.57;;;;;;;15.63;78.62;99899.00;343316;28;1510;-79
2022/10/30 00:00:33;;;;;;;15.27;6.82;;;;;;;15.64;78.87;99898.09;342278;28;1099;-78
2022/10/30 00:00:45;;;;;;;13.43;6.55;;;;;;;15.65;78.89;99905.03;342270;28;1039;-79
2022/10/30 00:00:57;;;;;;;13.13;6.50;;;;;;;15.64;78.88;99898.94;341042;29;1011;-79
2022/10/30 00:01:09;;;;;;;13.57;6.60;;;;;;;15.65;78.75;99900.63;340862;29;1050;-80
2022/10/30 00:01:21;;;;;;;13.95;6.53;;;;;;;15.65;78.92;99902.41;341551;28;1065;-82
2022/10/30 00:01:33;;;;;;;13.88;6.38;;;;;;;15.64;78.98;99898.09;342262;28;1171;-80
2022/10/30 00:01:45;;;;;;;15.45;6.32;;;;;;;15.63;78.72;99894.59;342149;28;1576;-80
2022/10/30 00:01:57;;;;;;;16.00;6.60;;;;;;;15.62;78.90;99897.31;342082;28;1200;-79
2022/10/30 00:02:09;;;;;;;15.05;6.70;;;;;;;15.61;78.79;99898.22;342124;28;1075;-78
2022/10/30 00:02:22;;;;;;;13.95;6.55;;;;;;;15.62;78.74;99899.94;341291;28;1027;-79
2022/10/30 00:02:34;;;;;;;13.65;6.68;;;;;;;15.61;78.89;99898.22;342213;28;1083;-78
2022/10/30 00:02:48;;;;;;;10.88;6.50;;;;;;;15.61;78.68;99899.06;342287;28;1065;-79
2022/10/30 00:03:00;;;;;;;11.77;6.43;;;;;;;15.59;78.91;99895.69;342245;28;1022;-78
2022/10/30 00:03:15;;;;;;;13.48;6.43;;;;;;;15.60;79.01;99899.19;342509;28;942;-79
2022/10/30 00:03:28;;;;;;;13.68;6.38;;;;;;;15.59;79.31;99895.69;342148;28;1080;-79
2022/10/30 00:03:39;;;;;;;13.48;6.25;;;;;;;15.60;78.86;99897.41;341787;28;1008;-79
2022/10/30 00:03:51;;;;;;;14.45;6.50;;;;;;;15.60;79.08;99897.41;342126;28;1060;-79
2022/10/30 00:04:03;;;;;;;15.20;6.78;;;;;;;15.60;79.17;99899.19;342241;28;1107;-79
2022/10/30 00:04:15;;;;;;;14.38;6.72;;;;;;;15.60;79.00;99897.41;342137;28;1064;-80
2022/10/30 00:04:27;;;;;;;15.40;6.47;;;;;;;15.60;79.10;99896.56;341787;28;1074;-79
2022/10/30 00:04:39;;;;;;;15.50;6.43;;;;;;;15.58;79.12;99897.47;341584;28;1027;-81
2022/10/30 00:04:51;;;;;;;12.75;6.70;;;;;;;15.57;79.24;99901.03;341597;28;841;-81
2022/10/30 00:05:03;;;;;;;12.38;6.75;;;;;;;15.57;79.38;99897.53;341900;28;1129;-79
2022/10/30 00:05:16;;;;;;;13.13;6.80;;;;;;;15.57;79.31;99898.41;341849;28;1011;-79
2022/10/30 00:05:28;;;;;;;14.43;6.80;;;;;;;15.58;79.29;99905.31;342214;28;1280;-78
2022/10/30 00:05:45;;;;;;;14.77;6.63;;;;;;;15.58;79.13;99901.88;341887;28;1205;-79
2022/10/30 00:05:57;;;;;;;13.05;6.50;;;;;;;15.59;79.27;99898.31;342156;28;1219;-80
2022/10/30 00:06:09;;;;;;;11.90;6.53;;;;;;;15.60;79.19;99900.00;342233;28;1209;-79
2022/10/30 00:06:21;;;;;;;12.90;6.70;;;;;;;15.60;79.05;99901.78;342360;28;1247;-79
2022/10/30 00:06:33;;;;;;;12.63;6.72;;;;;;;15.62;79.13;99899.94;342126;28;1748;-81
2022/10/30 00:06:45;;;;;;;14.02;6.72;;;;;;;15.62;78.91;99900.78;342530;28;1051;-80
2022/10/30 00:06:57;;;;;;;13.77;6.35;;;;;;;15.63;79.01;99899.00;342036;28;1051;-80
2022/10/30 00:07:09;;;;;;;15.60;6.22;;;;;;;15.62;79.29;99900.78;342108;28;1032;-81
2022/10/30 00:07:21;;;;;;;15.60;6.43;;;;;;;15.64;79.15;99898.09;342653;28;1044;-80
2022/10/30 00:07:33;;;;;;;13.98;6.80;;;;;;;15.64;79.12;99898.09;344411;28;1171;-80
2022/10/30 00:07:49;;;;;;;12.82;6.88;;;;;;;15.62;79.16;99899.94;343423;28;1172;-80
2022/10/30 00:08:00;;;;;;;12.40;7.00;;;;;;;15.60;79.43;99901.78;342097;28;1227;-78
2022/10/30 00:08:15;;;;;;;11.48;6.53;;;;;;;15.60;79.40;99901.78;341852;28;1564;-79
2022/10/30 00:08:27;;;;;;;12.13;6.43;;;;;;;15.55;79.70;99895.00;340668;29;1039;-79
2022/10/30 00:08:39;;;;;;;14.52;6.63;;;;;;;15.54;79.85;99893.31;341144;29;1039;-80
2022/10/30 00:08:51;;;;;;;15.93;6.78;;;;;;;15.53;79.86;99891.63;340946;28;1215;-79
2022/10/30 00:09:03;;;;;;;14.18;6.63;;;;;;;15.52;80.02;99900.38;341364;28;1618;-79
2022/10/30 00:09:15;;;;;;;11.95;6.70;;;;;;;15.53;79.91;99894.25;343305;28;1851;-80
2022/10/30 00:09:27;;;;;;;11.90;6.80;;;;;;;15.54;79.91;99897.69;341775;28;1139;-79
2022/10/30 00:09:39;;;;;;;11.38;6.72;;;;;;;15.53;79.83;99891.63;342705;28;1727;-78
2022/10/30 00:09:51;;;;;;;11.85;6.85;;;;;;;15.54;80.15;99893.31;343498;28;1140;-78
2022/10/30 00:10:03;;;;;;;12.63;7.13;;;;;;;15.54;80.00;99890.69;342923;28;1028;-78
2022/10/30 00:10:16;;;;;;;12.73;7.53;;;;;;;15.54;80.06;99892.47;342628;28;923;-80
2022/10/30 00:10:28;;;;;;;14.02;7.38;;;;;;;15.55;80.03;99894.13;342450;28;1248;-78
2022/10/30 00:10:41;;;;;;;14.35;7.13;;;;;;;15.57;79.83;99893.16;343658;28;1288;-78
2022/10/30 00:10:53;;;;;;;13.73;6.65;;;;;;;15.58;79.73;99894.84;342319;28;1213;-79
2022/10/30 00:11:10;;;;;;;14.30;6.95;;;;;;;15.59;79.79;99885.19;341082;29;1083;-78
2022/10/30 00:11:22;;;;;;;14.23;7.22;;;;;;;15.61;79.64;99893.00;343414;28;1149;-79
2022/10/30 00:11:34;;;;;;;15.05;6.93;;;;;;;15.60;79.72;99891.31;345201;28;729;-79
2022/10/30 00:11:46;;;;;;;14.23;7.00;;;;;;;15.60;79.71;99888.69;344825;28;1162;-79
2022/10/30 00:11:58;;;;;;;11.68;7.00;;;;;;;15.60;79.58;99892.16;343603;28;1035;-79
2022/10/30 00:12:10;;;;;;;10.23;6.40;;;;;;;15.60;79.74;99886.06;341976;28;1215;-79
2022/10/30 00:12:22;;;;;;;11.55;6.53;;;;;;;15.62;79.85;99889.47;340680;29;1898;-79
2022/10/30 00:12:34;;;;;;;11.55;6.68;;;;;;;15.61;79.94;99891.22;340710;29;1078;-79
2022/10/30 00:12:46;;;;;;;12.27;7.00;;;;;;;15.61;79.95;99885.97;340856;29;1026;-78
2022/10/30 00:12:58;;;;;;;11.90;6.83;;;;;;;15.61;80.00;99887.75;341604;28;1065;-79
2022/10/30 00:13:11;;;;;;;11.25;6.40;;;;;;;15.61;79.91;99891.22;342306;28;1022;-79
2022/10/30 00:13:23;;;;;;;16.23;7.13;;;;;;;15.60;80.01;99896.56;342324;28;1021;-78
2022/10/30 00:13:35;;;;;;;16.08;7.43;;;;;;;15.58;80.10;99892.22;341237;28;1175;-79
2022/10/30 00:13:47;;;;;;;12.43;7.05;;;;;;;15.60;79.65;99891.31;340730;29;1205;-79
2022/10/30 00:13:59;;;;;;;11.70;6.60;;;;;;;15.60;79.87;99886.91;341411;28;1102;-79
2022/10/30 00:14:12;;;;;;;11.15;6.88;;;;;;;15.56;79.96;99880.97;341962;28;1065;-80
2022/10/30 00:14:24;;;;;;;11.10;6.53;;;;;;;15.60;80.15;99886.06;342321;28;1247;-78
2022/10/30 00:14:36;;;;;;;12.27;6.72;;;;;;;15.60;79.92;99886.91;342225;28;1079;-80
2022/10/30 00:14:48;;;;;;;12.70;6.75;;;;;;;15.60;79.86;99886.06;340999;29;1240;-79
2022/10/30 00:15:00;;;;;;;12.90;6.90;;;;;;;15.60;79.79;99886.06;341004;29;1576;-79
2022/10/30 00:15:12;;;;;;;13.38;6.80;;;;;;;15.56;79.95;99886.22;340799;29;1160;-79
2022/10/30 00:15:24;;;;;;;13.27;6.68;;;;;;;15.57;79.98;99887.94;341251;29;1461;-79
2022/10/30 00:15:36;;;;;;;12.10;6.60;;;;;;;15.58;79.81;99889.59;341021;29;1068;-79
2022/10/30 00:15:52;;;;;;;12.00;6.68;;;;;;;15.58;79.84;99886.97;341212;29;1066;-80
2022/10/30 00:16:06;;;;;;;11.55;6.85;;;;;;;15.59;79.80;99879.97;342115;28;1091;-79
2022/10/30 00:16:18;;;;;;;12.63;6.88;;;;;;;15.60;79.84;99883.47;342393;28;1232;-80
2022/10/30 00:16:30;;;;;;;12.52;7.00;;;;;;;15.60;79.78;99875.59;342377;28;1119;-79
2022/10/30 00:16:42;;;;;;;13.90;7.05;;;;;;;15.61;79.88;99887.75;342449;28;1119;-80
2022/10/30 00:16:54;;;;;;;13.75;7.00;;;;;;;15.60;79.70;99876.44;341867;28;1333;-80
2022/10/30 00:17:06;;;;;;;12.90;6.85;;;;;;;15.60;79.86;99879.06;342641;28;1083;-79
2022/10/30 00:17:18;;;;;;;10.57;6.50;;;;;;;15.60;79.71;99879.06;342699;28;1114;-80
2022/10/30 00:17:30;;;;;;;10.45;6.15;;;;;;;15.63;79.68;99885.91;342731;28;1083;-79
2022/10/30 00:17:42;;;;;;;12.50;6.63;;;;;;;15.63;79.38;99880.66;342597;28;1019;-79
2022/10/30 00:17:54;;;;;;;12.77;6.65;;;;;;;15.64;79.70;99883.22;342801;28;1379;-80
2022/10/30 00:18:06;;;;;;;12.60;6.80;;;;;;;15.64;79.56;99882.38;340959;29;1195;-80
2022/10/30 00:18:19;;;;;;;13.38;6.90;;;;;;;15.64;79.56;99877.13;341490;28;1218;-80
2022/10/30 00:18:34;;;;;;;13.88;7.00;;;;;;;15.62;79.66;99879.81;342328;28;1345;-79
2022/10/30 00:18:46;;;;;;;15.73;7.03;;;;;;;15.62;79.49;99886.84;342249;28;1336;-79
2022/10/30 00:18:58;;;;;;;15.95;6.97;;;;;;;15.62;79.32;99881.59;343395;28;749;-79
2022/10/30 00:19:10;;;;;;;15.90;6.65;;;;;;;15.63;79.24;99881.50;343862;28;1016;-79
2022/10/30 00:19:22;;;;;;;13.95;6.38;;;;;;;15.63;79.57;99880.66;343533;28;1148;-79
2022/10/30 00:19:34;;;;;;;11.15;6.40;;;;;;;15.64;79.31;99883.22;343507;28;1165;-80
2022/10/30 00:19:46;;;;;;;11.80;6.57;;;;;;;15.66;79.36;99885.78;343692;28;1080;-79
2022/10/30 00:19:58;;;;;;;12.35;6.40;;;;;;;15.64;78.83;99877.97;343591;28;1361;-80
2022/10/30 00:20:10;;;;;;;14.02;6.60;;;;;;;15.64;79.38;99882.38;344593;28;1305;-79
2022/10/30 00:20:22;;;;;;;15.38;7.05;;;;;;;15.63;79.35;99880.66;345365;28;1141;-80
2022/10/30 00:20:35;;;;;;;15.15;6.85;;;;;;;15.65;79.31;99884.06;345095;28;1622;-80
2022/10/30 00:20:47;;;;;;;14.67;6.97;;;;;;;15.62;79.52;99876.38;345228;28;1107;-80
2022/10/30 00:21:08;;;;;;;17.20;7.18;;;;;;;15.63;79.62;99880.66;345375;28;1241;-79
2022/10/30 00:21:20;;;;;;;15.00;6.63;;;;;;;15.64;79.47;99877.13;345272;28;1216;-79
2022/10/30 00:21:32;;;;;;;12.43;6.47;;;;;;;15.60;79.86;99872.97;345280;28;1086;-79
2022/10/30 00:21:44;;;;;;;13.65;6.63;;;;;;;15.63;79.47;99875.44;343653;28;1023;-79
2022/10/30 00:22:01;;;;;;;12.75;6.43;;;;;;;15.61;79.72;99877.28;343041;28;1612;-80
2022/10/30 00:22:12;;;;;;;12.68;6.57;;;;;;;15.63;79.66;99878.03;342767;28;976;-80
2022/10/30 00:22:24;;;;;;;12.27;6.57;;;;;;;15.63;79.74;99880.66;342309;28;1230;-79
2022/10/30 00:22:36;;;;;;;12.15;6.50;;;;;;;15.64;79.67;99877.97;342142;28;1012;-79
2022/10/30 00:22:48;;;;;;;13.60;6.70;;;;;;;15.66;79.53;99875.28;342221;28;1211;-79
2022/10/30 00:23:00;;;;;;;14.43;6.85;;;;;;;15.67;79.29;99877.81;342451;28;1192;-80
2022/10/30 00:23:12;;;;;;;15.93;6.78;;;;;;;15.67;79.54;99879.59;342553;28;1149;-80
2022/10/30 00:23:24;;;;;;;16.63;6.82;;;;;;;15.66;79.44;99881.38;342432;28;1089;-80
2022/10/30 00:23:36;;;;;;;16.52;6.93;;;;;;;15.66;79.41;99876.13;341342;29;1059;-80
2022/10/30 00:23:51;;;;;;;14.30;7.25;;;;;;;15.63;79.69;99872.81;341480;28;1820;-79
2022/10/30 00:24:03;;;;;;;13.35;7.18;;;;;;;15.63;79.56;99875.44;343754;28;1145;-79
2022/10/30 00:24:15;;;;;;;14.05;6.97;;;;;;;15.63;79.64;99875.44;344338;28;1036;-79
2022/10/30 00:24:28;;;;;;;13.73;6.88;;;;;;;15.63;79.62;99878.03;343850;28;1188;-79
2022/10/30 00:24:40;;;;;;;13.68;6.47;;;;;;;15.64;79.63;99871.91;341660;28;1049;-80
2022/10/30 00:24:52;;;;;;;12.35;6.28;;;;;;;15.63;79.85;99870.19;340876;29;1095;-80
2022/10/30 00:25:04;;;;;;;12.60;6.45;;;;;;;15.63;79.84;99867.56;341487;28;1254;-79
2022/10/30 00:25:16;;;;;;;13.50;6.80;;;;;;;15.61;79.79;99874.66;342481;28;1251;-80
2022/10/30 00:25:28;;;;;;;13.57;6.93;;;;;;;15.64;79.50;99869.28;342520;28;1192;-79
2022/10/30 00:25:40;;;;;;;12.68;6.85;;;;;;;15.66;79.54;99875.28;342324;28;1140;-80
2022/10/30 00:25:52;;;;;;;10.75;6.70;;;;;;;15.67;79.54;99876.97;341155;29;1068;-79
2022/10/30 00:26:06;;;;;;;11.65;6.35;;;;;;;15.68;79.29;99868.19;341384;29;1024;-80
2022/10/30 00:26:20;;;;;;;12.70;6.55;;;;;;;15.70;79.42;99866.34;340931;29;1228;-80
2022/10/30 00:26:32;;;;;;;12.35;6.78;;;;;;;15.72;79.25;99869.72;341061;29;1023;-79
2022/10/30 00:26:44;;;;;;;9.98;6.28;;;;;;;15.74;79.10;99873.16;341184;29;1080;-79
2022/10/30 00:26:56;;;;;;;9.98;6.32;;;;;;;15.75;79.08;99872.22;341864;28;1188;-79
2022/10/30 00:27:08;;;;;;;10.45;6.57;;;;;;;15.76;79.36;99868.69;342486;28;1056;-79
2022/10/30 00:27:20;;;;;;;10.05;6.38;;;;;;;15.77;79.12;99873.84;341094;29;1061;-80
2022/10/30 00:27:32;;;;;;;9.60;6.25;;;;;;;15.76;78.79;99869.53;341125;29;1072;-79
2022/10/30 00:27:43;;;;;;;9.43;6.10;;;;;;;15.76;79.12;99866.06;341010;29;1096;-79
2022/10/30 00:27:55;;;;;;;9.25;5.90;;;;;;;15.77;78.84;99865.13;341631;28;1127;-79
2022/10/30 00:28:07;;;;;;;11.50;6.20;;;;;;;15.75;79.04;99875.72;342848;28;1035;-79
2022/10/30 00:28:19;;;;;;;14.02;6.53;;;;;;;15.74;79.24;99870.53;341990;28;1289;-79
2022/10/30 00:28:32;;;;;;;13.10;6.57;;;;;;;15.74;78.92;99870.53;342689;28;1171;-79
2022/10/30 00:28:47;;;;;;;11.50;6.63;;;;;;;15.75;79.08;99869.59;344079;28;1354;-80
2022/10/30 00:28:59;;;;;;;13.05;6.53;;;;;;;15.73;78.98;99871.44;343754;28;1264;-79
2022/10/30 00:29:11;;;;;;;14.77;6.65;;;;;;;15.71;79.29;99868.88;343899;28;1247;-79
2022/10/30 00:29:25;;;;;;;14.60;6.55;;;;;;;15.73;79.33;99866.19;343743;28;1024;-80
2022/10/30 00:29:37;;;;;;;12.93;6.35;;;;;;;15.73;78.99;99868.81;343941;28;1256;-80
2022/10/30 00:29:48;;;;;;;12.18;6.28;;;;;;;15.74;78.97;99863.50;344063;28;1142;-79
2022/10/30 00:30:00;;;;;;;12.70;6.28;;;;;;;15.74;78.98;99863.50;342747;28;1298;-79
2022/10/30 00:30:14;;;;;;;13.27;5.85;;;;;;;15.75;78.90;99864.34;342641;28;1024;-80
2022/10/30 00:30:26;;;;;;;12.95;5.60;;;;;;;15.75;78.82;99865.22;342788;28;1204;-79
2022/10/30 00:30:38;;;;;;;14.88;6.15;;;;;;;15.73;78.98;99863.59;342921;28;1070;-79
2022/10/30 00:30:50;;;;;;;16.58;6.57;;;;;;;15.72;78.99;99874.97;342773;28;1141;-80
2022/10/30 00:31:03;;;;;;;17.73;6.88;;;;;;;15.71;78.88;99863.63;342311;28;888;-79
2022/10/30 00:31:15;;;;;;;15.93;6.70;;;;;;;15.69;78.85;99862.00;342679;28;1093;-79
2022/10/30 00:31:27;;;;;;;13.38;6.57;;;;;;;15.65;79.04;99874.41;342331;28;1125;-80
2022/10/30 00:31:39;;;;;;;10.65;6.25;;;;;;;15.66;79.03;99870.03;342508;28;1225;-79
2022/10/30 00:31:52;;;;;;;12.13;6.22;;;;;;;15.67;79.10;99861.25;342410;28;1228;-79
2022/10/30 00:32:04;;;;;;;14.25;6.97;;;;;;;15.67;79.04;99864.69;342854;28;1163;-79
2022/10/30 00:32:16;;;;;;;13.38;7.20;;;;;;;15.70;79.14;99861.09;341203;29;1093;-79
2022/10/30 00:32:28;;;;;;;11.45;6.70;;;;;;;15.70;79.03;99866.34;341662;28;1080;-79
2022/10/30 00:32:41;;;;;;;10.98;6.00;;;;;;;15.71;78.95;99868.03;341704;28;1073;-80
2022/10/30 00:32:53;;;;;;;10.50;5.90;;;;;;;15.72;79.02;99864.50;341221;29;1228;-79
2022/10/30 00:33:05;;;;;;;9.75;5.80;;;;;;;15.72;78.88;99867.13;340860;29;1225;-80
2022/10/30 00:33:17;;;;;;;11.30;5.93;;;;;;;15.72;79.01;99867.13;339765;29;1062;-79
2022/10/30 00:33:29;;;;;;;13.20;6.10;;;;;;;15.72;79.12;99862.75;339722;29;1146;-79
2022/10/30 00:33:41;;;;;;;14.02;5.95;;;;;;;15.72;79.02;99865.38;340591;29;1162;-79
2022/10/30 00:33:54;;;;;;;17.67;6.30;;;;;;;15.71;79.56;99868.88;342365;28;1748;-79
2022/10/30 00:34:06;;;;;;;15.75;6.50;;;;;;;15.70;79.31;99861.09;344121;28;1067;-80
2022/10/30 00:34:18;;;;;;;13.30;6.63;;;;;;;15.68;79.21;99857.72;344344;28;1985;-79
2022/10/30 00:34:30;;;;;;;11.32;6.50;;;;;;;15.64;79.54;99861.41;344712;28;1688;-79
2022/10/30 00:34:42;;;;;;;10.75;6.40;;;;;;;15.62;79.78;99852.78;342878;28;2121;-80
2022/10/30 00:34:54;;;;;;;11.88;6.30;;;;;;;15.61;79.77;99853.69;344659;28;768;-79
2022/10/30 00:35:06;;;;;;;13.80;6.43;;;;;;;15.60;80.08;99859.88;343807;28;1841;-80
2022/10/30 00:35:18;;;;;;;12.98;6.53;;;;;;;15.59;79.96;99861.63;343089;28;1181;-79
2022/10/30 00:35:30;;;;;;;12.07;6.63;;;;;;;15.55;80.16;99860.94;345088;28;1857;-79
2022/10/30 00:35:48;;;;;;;12.40;6.43;;;;;;;15.56;80.27;99859.16;343674;28;1727;-80
2022/10/30 00:36:00;;;;;;;11.65;6.40;;;;;;;15.57;80.07;99856.47;345260;28;1045;-79
2022/10/30 00:36:12;;;;;;;10.88;6.25;;;;;;;15.57;79.96;99866.97;345379;28;1059;-79
2022/10/30 00:36:24;;;;;;;11.52;6.05;;;;;;;15.60;79.99;99859.88;345246;28;1181;-79
2022/10/30 00:36:36;;;;;;;11.27;5.70;;;;;;;15.62;79.74;99863.25;345739;28;1136;-79
2022/10/30 00:36:48;;;;;;;12.75;5.90;;;;;;;15.63;79.70;99864.94;345411;28;1168;-79
2022/10/30 00:37:00;;;;;;;13.32;6.10;;;;;;;15.62;79.41;99865.88;345568;28;1120;-80
2022/10/30 00:37:12;;;;;;;14.32;6.15;;;;;;;15.63;79.73;99870.19;343096;28;1722;-80
2022/10/30 00:37:24;;;;;;;14.60;6.43;;;;;;;15.61;79.82;99861.56;343534;28;1240;-79
2022/10/30 00:37:36;;;;;;;14.25;6.65;;;;;;;15.58;80.00;99868.66;343382;28;1160;-80
2022/10/30 00:37:48;;;;;;;11.40;6.80;;;;;;;15.57;79.81;99864.34;342687;28;1160;-80
2022/10/30 00:38:00;;;;;;;12.55;6.68;;;;;;;15.54;80.24;99861.03;342556;28;1599;-79
2022/10/30 00:38:12;;;;;;;12.02;6.50;;;;;;;15.55;80.23;99866.19;342764;28;1088;-79
2022/10/30 00:38:25;;;;;;;11.18;6.55;;;;;;;15.51;80.49;99863.78;343610;28;1231;-79
2022/10/30 00:38:37;;;;;;;10.20;6.55;;;;;;;15.52;80.42;99862.88;343728;28;1094;-79
2022/10/30 00:38:49;;;;;;;12.20;6.97;;;;;;;15.51;80.12;99864.66;343879;28;1722;-79
2022/10/30 00:39:02;;;;;;;11.30;6.93;;;;;;;15.52;80.46;99861.09;344113;28;1220;-79
2022/10/30 00:39:14;;;;;;;11.85;7.00;;;;;;;15.53;80.40;99860.19;344044;28;1150;-79
2022/10/30 00:39:26;;;;;;;12.83;6.93;;;;;;;15.53;80.44;99865.41;344071;28;1062;-79
2022/10/30 00:39:38;;;;;;;12.15;6.68;;;;;;;15.56;80.45;99859.16;344680;28;1289;-79
2022/10/30 00:39:50;;;;;;;11.40;6.50;;;;;;;15.57;80.43;99859.09;343857;28;1080;-79
2022/10/30 00:40:03;;;;;;;12.05;6.30;;;;;;;15.60;80.35;99865.13;344538;28;1205;-79
2022/10/30 00:40:17;;;;;;;13.23;6.68;;;;;;;15.60;80.25;99865.13;343921;28;1123;-79
2022/10/30 00:40:28;;;;;;;12.15;6.68;;;;;;;15.60;80.40;99867.72;343859;28;1188;-79
2022/10/30 00:40:40;;;;;;;12.57;6.50;;;;;;;15.60;80.39;99867.72;343960;28;1023;-80
2022/10/30 00:40:52;;;;;;;14.27;6.75;;;;;;;15.58;80.26;99862.56;343746;28;1023;-80
2022/10/30 00:41:04;;;;;;;16.10;6.60;;;;;;;15.51;80.67;99862.03;344342;28;1743;-79
2022/10/30 00:41:20;;;;;;;15.10;6.35;;;;;;;15.44;81.19;99865.88;343715;28;1209;-79
2022/10/30 00:41:32;;;;;;;10.68;6.30;;;;;;;15.45;81.13;99864.91;342197;28;1840;-79
2022/10/30 00:41:44;;;;;;;9.90;6.05;;;;;;;15.45;81.25;99859.69;342868;28;750;-79
2022/10/30 00:41:55;;;;;;;9.57;6.00;;;;;;;15.44;81.09;99860.63;343053;28;1036;-80
2022/10/30 00:42:11;;;;;;;11.10;6.22;;;;;;;15.44;81.49;99860.63;342736;28;1071;-79
2022/10/30 00:42:29;;;;;;;12.85;6.80;;;;;;;15.46;81.61;99863.19;344459;28;1287;-79
2022/10/30 00:42:41;;;;;;;12.43;6.70;;;;;;;15.45;81.42;99857.06;343951;28;1711;-79
2022/10/30 00:42:53;;;;;;;12.32;6.60;;;;;;;15.42;81.70;99859.84;343375;28;1127;-79
2022/10/30 00:43:45;;;;;;;11.38;6.80;;;;;;;15.41;81.88;99859.91;342647;28;1176;-79
2022/10/30 00:43:57;;;;;;;13.20;6.32;;;;;;;15.44;81.89;99858.00;341602;28;1026;-79
2022/10/30 00:44:31;;;;;;;11.98;6.60;;;;;;;15.50;81.49;99860.31;341406;29;1067;-80
2022/10/30 00:44:42;;;;;;;12.52;6.30;;;;;;;15.51;81.32;99856.78;341807;28;1104;-80
2022/10/30 00:44:54;;;;;;;13.10;6.38;;;;;;;15.54;81.26;99851.38;342674;28;1068;-80
2022/10/30 00:45:10;;;;;;;12.90;6.25;;;;;;;15.57;81.30;99856.47;342562;28;1190;-80
2022/10/30 00:45:23;;;;;;;11.15;5.97;;;;;;;15.60;81.14;99849.41;342543;28;1051;-80
2022/10/30 00:45:35;;;;;;;12.13;6.28;;;;;;;15.62;81.06;99855.41;342229;28;1099;-79
2022/10/30 00:45:47;;;;;;;11.52;6.57;;;;;;;15.64;80.92;99853.56;343055;28;750;-79
2022/10/30 00:46:12;;;;;;;11.80;6.65;;;;;;;15.67;80.79;99861.25;343641;28;1067;-79
2022/10/30 00:46:32;;;;;;;11.98;6.25;;;;;;;15.68;80.59;99852.47;343851;28;1012;-79
2022/10/30 00:46:44;;;;;;;12.55;6.82;;;;;;;15.68;80.67;99855.09;342745;28;1444;-79
2022/10/30 00:46:57;;;;;;;11.20;6.78;;;;;;;15.67;80.46;99853.38;343029;28;1147;-79
2022/10/30 00:47:31;;;;;;;11.82;6.50;;;;;;;15.59;80.54;99848.53;342917;28;1107;-79
2022/10/30 00:47:51;;;;;;;13.43;6.57;;;;;;;15.57;80.78;99851.25;343442;28;1429;-79
2022/10/30 00:48:04;;;;;;;12.32;6.38;;;;;;;15.56;80.81;99861.78;343999;28;1168;-79
2022/10/30 00:48:16;;;;;;;12.43;6.45;;;;;;;15.56;81.06;99854.78;344306;28;1017;-79
2022/10/30 00:48:28;;;;;;;12.93;6.63;;;;;;;15.53;81.18;99854.94;344463;28;1037;-79
2022/10/30 00:48:43;;;;;;;12.93;6.57;;;;;;;15.50;81.35;99855.06;343663;28;1719;-79
2022/10/30 00:48:57;;;;;;;13.10;6.65;;;;;;;15.53;81.21;99860.19;345311;28;1196;-80
2022/10/30 00:49:14;;;;;;;13.57;6.57;;;;;;;15.54;81.11;99855.78;345178;28;1055;-79
2022/10/30 00:49:26;;;;;;;12.65;6.15;;;;;;;15.56;80.71;99854.78;344910;28;1178;-80
2022/10/30 00:49:47;;;;;;;11.48;6.05;;;;;;;15.57;80.67;99863.47;345372;28;1125;-80
2022/10/30 00:50:14;;;;;;;13.75;6.82;;;;;;;15.56;80.63;99856.56;345250;28;1179;-80
2022/10/30 00:50:31;;;;;;;11.27;6.65;;;;;;;15.55;81.09;99857.47;345315;28;1083;-79
2022/10/30 00:50:43;;;;;;;11.77;6.88;;;;;;;15.53;80.83;99852.31;345302;28;1066;-79
2022/10/30 00:50:57;;;;;;;10.52;6.68;;;;;;;15.53;80.95;99854.94;345386;28;1208;-79
2022/10/30 00:51:10;;;;;;;11.02;6.50;;;;;;;15.46;81.33;99855.31;344503;28;1618;-80
2022/10/30 00:51:24;;;;;;;11.07;6.50;;;;;;;15.36;81.33;99857.53;344747;28;1328;-79
2022/10/30 00:51:38;;;;;;;10.75;6.18;;;;;;;15.36;81.57;99852.28;342408;28;1545;-79
2022/10/30 00:51:53;;;;;;;11.38;6.28;;;;;;;15.38;81.45;99851.28;343240;28;1306;-79
2022/10/30 00:52:08;;;;;;;13.68;6.50;;;;;;;15.40;81.53;99845.97;344182;28;992;-79
2022/10/30 00:52:23;;;;;;;13.27;6.80;;;;;;;15.42;81.70;99849.38;343881;28;1263;-79
2022/10/30 00:52:45;;;;;;;13.93;6.57;;;;;;;15.43;81.49;99850.22;343672;28;1262;-79
2022/10/30 00:52:59;;;;;;;11.82;6.25;;;;;;;15.47;81.14;99855.22;344176;28;1198;-79
2022/10/30 00:53:16;;;;;;;12.40;6.00;;;;;;;15.50;81.15;99857.69;342752;28;1244;-79
2022/10/30 00:53:28;;;;;;;13.40;6.03;;;;;;;15.51;81.05;99851.56;341411;29;1204;-79
2022/10/30 00:53:41;;;;;;;15.65;6.38;;;;;;;15.52;81.00;99853.22;342455;28;1035;-80
2022/10/30 00:53:58;;;;;;;16.67;6.50;;;;;;;15.52;80.96;99853.22;342199;28;1051;-80
2022/10/30 00:54:11;;;;;;;12.68;6.00;;;;;;;15.52;81.03;99855.84;342586;28;1107;-79
2022/10/30 00:54:23;;;;;;;9.73;5.80;;;;;;;15.51;81.16;99853.31;342625;28;1148;-79
2022/10/30 00:54:35;;;;;;;11.23;6.07;;;;;;;15.50;81.33;99855.06;342744;28;1044;-80
2022/10/30 00:54:48;;;;;;;13.55;6.40;;;;;;;15.48;81.46;99856.09;341335;29;1244;-79
2022/10/30 00:55:12;;;;;;;12.30;6.43;;;;;;;15.44;81.80;99855.38;341248;29;1211;-80
2022/10/30 00:55:30;;;;;;;11.15;6.47;;;;;;;15.45;81.68;99851.81;342511;28;1126;-80
2022/10/30 00:55:48;;;;;;;13.68;6.60;;;;;;;15.46;81.61;99853.53;341695;29;854;-80
2022/10/30 00:56:04;;;;;;;13.82;6.72;;;;;;;15.46;81.71;99856.16;342206;28;1974;-79
2022/10/30 00:56:19;;;;;;;13.02;6.50;;;;;;;15.46;81.70;99850.91;342948;28;856;-80
2022/10/30 00:56:31;;;;;;;11.73;6.43;;;;;;;15.46;81.78;99858.78;342941;28;1088;-80
2022/10/30 00:56:46;;;;;;;11.25;6.60;;;;;;;15.46;81.67;99850.06;342559;28;1164;-79
2022/10/30 00:57:00;;;;;;;12.38;6.57;;;;;;;15.44;82.03;99850.16;342881;28;1193;-79
2022/10/30 00:57:12;;;;;;;11.88;6.70;;;;;;;15.45;82.05;99851.81;344047;28;1248;-80
2022/10/30 00:57:25;;;;;;;13.27;6.65;;;;;;;15.47;81.88;99844.72;342661;28;1263;-80
2022/10/30 00:57:38;;;;;;;15.13;6.50;;;;;;;15.49;81.77;99850.78;342650;28;1051;-80
2022/10/30 00:57:52;;;;;;;15.00;6.38;;;;;;;15.52;81.55;99850.59;342533;28;1051;-80
2022/10/30 00:58:08;;;;;;;12.73;5.93;;;;;;;15.54;81.54;99851.38;342349;28;1116;-80
2022/10/30 00:58:26;;;;;;;10.68;5.60;;;;;;;15.55;81.35;99842.63;342271;28;1095;-80
2022/10/30 00:58:43;;;;;;;8.38;5.53;;;;;;;15.58;81.22;99846.84;342258;28;1472;-79
2022/10/30 00:59:02;;;;;;;10.02;5.68;;;;;;;15.61;81.18;99851.91;342461;28;1047;-79
2022/10/30 00:59:23;;;;;;;12.23;5.95;;;;;;;15.62;81.07;99844.91;343026;28;1204;-80
2022/10/30 00:59:36;;;;;;;13.80;6.22;;;;;;;15.64;80.87;99849.16;341132;29;1081;-80
2022/10/30 00:59:48;;;;;;;13.18;6.10;;;;;;;15.64;80.99;99843.91;340295;29;1170;-80
2022/10/30 01:00:03;;;;;;;12.98;6.10;;;;;;;15.66;81.06;99843.84;338848;29;1219;-80
2022/10/30 01:00:18;;;;;;;11.60;6.07;;;;;;;15.66;80.55;99843.84;338606;29;912;-80
2022/10/30 01:00:30;;;;;;;9.60;5.63;;;;;;;15.67;80.51;99840.28;339771;28;1747;-80
2022/10/30 01:00:50;;;;;;;9.57;5.53;;;;;;;15.67;80.50;99840.28;340376;29;1659;-80
2022/10/30 01:01:08;;;;;;;8.70;5.35;;;;;;;15.69;80.36;99848.91;341508;28;1146;-80
2022/10/30 01:01:24;;;;;;;10.10;5.32;;;;;;;15.69;80.25;99848.91;341099;28;1268;-80
2022/10/30 01:01:39;;;;;;;10.65;5.65;;;;;;;15.67;80.07;99845.53;342585;28;1141;-80
2022/10/30 01:01:52;;;;;;;13.02;5.97;;;;;;;15.66;80.01;99851.69;343384;28;1173;-80
2022/10/30 01:02:06;;;;;;;11.77;6.05;;;;;;;15.62;79.78;99847.53;344908;28;1192;-80
2022/10/30 01:02:21;;;;;;;12.77;5.90;;;;;;;15.58;79.73;99852.91;344548;28;1259;-80
2022/10/30 01:02:33;;;;;;;15.07;5.80;;;;;;;15.58;79.64;99844.22;344062;28;1045;-80
2022/10/30 01:02:45;;;;;;;14.85;5.88;;;;;;;15.56;79.59;99849.53;343984;28;1040;-79
2022/10/30 01:02:57;;;;;;;11.77;5.72;;;;;;;15.49;79.71;99853.41;343691;28;1194;-79
2022/10/30 01:03:10;;;;;;;10.40;5.72;;;;;;;15.48;80.06;99853.47;345168;28;1075;-79
2022/10/30 01:03:24;;;;;;;10.48;5.93;;;;;;;15.45;79.91;99851.81;343896;28;1070;-80
2022/10/30 01:03:38;;;;;;;11.82;5.85;;;;;;;15.43;79.99;99851.06;343912;28;1027;-80
2022/10/30 01:03:54;;;;;;;14.45;5.63;;;;;;;15.40;80.13;99851.22;344023;28;1040;-79